Terminal Aerodrome Forecast
Issued by NWS

Home | Current Version | Previous Version | Text Only | Print | Product List | Glossary On
Versions: 1 2 3 4 5 6 7 8 9 10 11 12 13 14 15 16 17 18 19 20 21 22 23 24 25
000
FTUS43 KMKX 111134
TAFENW
TAF
KENW 111134Z 1112/1212 20005KT 5SM -SN OVC040
      TEMPO 1112/1114 2SM -SN BKN025
     FM111400 19008KT P6SM OVC040
     FM112000 21006KT 2SM -SN OVC030
     FM120100 33011G20KT P6SM OVC010
     FM120300 33016G29KT P6SM BKN025
     FM120600 33017G28KT P6SM SCT040=

USA.gov is the U.S. government's official web portal to all federal, state and local government web resources and services.